Etusivu
METAR-TAF:

METAR-TAF

Lentoasemat :

Golden, Brittiläinen Kolumbia, Kanada

Leveyspiiri: 51-18N, Pituuspiiri: 116-59W, korkeus merenpinnasta: 785 m

Tämänhetkinen sää

Tämä raportti tehtiin 49 minuuttia sitten, kello 13.00 UTC
Tuuli 2 kn eri suunnista
Lämpötila -3°C
Kosteus 80%
Ilmanpaine 1026 hPa
Näkyvyys: 32.2 km
Muutamia pilviä 21000 ft:n korkeudessa

METAR: CYGE 251300Z VRB02KT 20SM FEW210 M03/M06 A3030 RMK CI1 SLP289

Aika: 07:49 (13:49 UTC)


TAF: puuttuu

Säähavainnot ja -ennusteet yli 4000 lentoasemalta (METAR- ja TAF-raportit).

Käytössä olevat sääasemat on merkitty karttaan keltaisilla ja punaisilla pisteillä.

Aseta hiiri pisteen päälle nähdäksesi sääaseman nimen.

Klikkaa sitten nähdäksesi säähavainnot ja -ennusteet.

Kartan vaihtaminen: klikkaa mustalla rastilla varustettuja vihreitä pisteitä, niin voit zoomata sisään; viivalla varustettua vihreää pistettä, niin voit zoomata ulos tai vihreitä nuolia, niin pääset viereisille kartoille.


METAR-TAF: